Mitchellville, Tennessee
Current Conditions -  °F | °C
As of 8:53 PM on Friday 31 Oct 2014 (Local Time) from KBWG Reporting Station
Overcast Overcast  
Wind Chill: 33°   Ceiling: 5000
Heat Index: 40°   Visibility: 10mi
Dew Point: 29°   Wind: 10mph
Humidity: 65%   Direction: 310°NW
Pressure: 30.12"   Gusts: 21mph
Location:  36.63°N, 86.54°W
Report Text: KBWG 010153Z AUTO 31009G18KT 10SM BKN050 OVC055 04/M02 A3012 RMK AO2 SLP201 P0001 T00441017
Loading
Personal Weather Stations






























Interactive Weather Map
Tropical Storm Tracking
New forecast layout! Learn more

10-Day Weather Forecast

Advertisements
Track Severe Weather on mobile